Time;durP1;ratioP1;P1;durP2;ratioP2;P2;SDS_P1;SDS_P2;PMS_P1;PMS_P2;Temp;Humidity;BMP_temperature;BMP_pressure;BME280_temperature;BME280_humidity;BME280_pressure;Samples;Min_cycle;Max_cycle;Signal;HPM_P1;HPM_P2
2021/01/02 00:01:27;;;;;;;24.57;15.07;;;;;;;;;;10408560;28;20186;-67
2021/01/02 00:06:37;;;;;;;27.20;16.20;;;;;;;;;;10451561;28;20223;-68
2021/01/02 00:11:50;;;;;;;24.43;15.07;;;;;;;;;;10455437;28;20258;-69
2021/01/02 00:16:58;;;;;;;27.27;15.43;;;;;;;;;;10447845;28;20546;-68
2021/01/02 00:22:02;;;;;;;20.77;12.77;;;;;;;;;;10419554;28;20661;-67
2021/01/02 00:27:09;;;;;;;24.07;13.73;;;;;;;;;;10410958;28;20608;-67
2021/01/02 00:32:18;;;;;;;24.13;13.67;;;;;;;;;;10434940;28;20193;-69
2021/01/02 00:37:24;;;;;;;22.93;13.40;;;;;;;;;;10443728;28;20213;-68
2021/01/02 00:42:26;;;;;;;20.60;12.30;;;;;;;;;;10457731;28;20538;-67
2021/01/02 00:47:28;;;;;;;22.73;12.97;;;;;;;;;;10447326;28;20229;-68
2021/01/02 00:52:48;;;;;;;20.70;12.67;;;;;;;;;;10448714;28;20238;-68
2021/01/02 00:58:01;;;;;;;21.03;13.30;;;;;;;;;;10449837;28;20216;-69
2021/01/02 01:03:06;;;;;;;21.10;12.73;;;;;;;;;;10448289;28;20223;-68
2021/01/02 01:08:07;;;;;;;22.93;12.93;;;;;;;;;;10425144;28;20241;-67
2021/01/02 01:13:11;;;;;;;22.67;13.73;;;;;;;;;;10439018;28;20221;-68
2021/01/02 01:18:19;;;;;;;22.40;13.53;;;;;;;;;;10451011;28;20287;-66
2021/01/02 01:23:26;;;;;;;22.30;13.47;;;;;;;;;;10446258;28;20201;-68
2021/01/02 01:28:31;;;;;;;25.20;14.47;;;;;;;;;;10451710;28;20338;-69
2021/01/02 01:33:39;;;;;;;23.40;14.00;;;;;;;;;;10429749;28;20228;-68
2021/01/02 01:38:42;;;;;;;24.50;14.53;;;;;;;;;;10447960;28;20181;-68
2021/01/02 01:44:15;;;;;;;22.83;14.77;;;;;;;;;;10449229;28;20244;-68
2021/01/02 01:49:22;;;;;;;25.20;15.57;;;;;;;;;;10446176;28;20637;-68
2021/01/02 01:54:37;;;;;;;27.47;15.40;;;;;;;;;;10444097;28;20679;-67
2021/01/02 01:59:57;;;;;;;25.37;15.43;;;;;;;;;;10444445;28;20676;-68
2021/01/02 02:05:01;;;;;;;25.80;16.07;;;;;;;;;;10446314;28;20229;-68
2021/01/02 02:10:06;;;;;;;24.43;15.70;;;;;;;;;;10454447;28;20197;-68
2021/01/02 02:15:10;;;;;;;25.83;15.67;;;;;;;;;;10441821;28;20259;-69
2021/01/02 02:20:13;;;;;;;27.20;16.47;;;;;;;;;;10414103;28;20283;-68
2021/01/02 02:25:16;;;;;;;24.43;15.97;;;;;;;;;;10425247;28;20354;-69
2021/01/02 02:30:25;;;;;;;25.37;15.30;;;;;;;;;;10453489;28;20708;-67
2021/01/02 02:35:27;;;;;;;26.40;15.57;;;;;;;;;;10452649;28;20224;-68
2021/01/02 02:40:28;;;;;;;24.03;14.97;;;;;;;;;;10445762;28;20283;-68
2021/01/02 02:45:31;;;;;;;22.93;15.23;;;;;;;;;;10444281;28;20234;-68
2021/01/02 02:50:33;;;;;;;25.27;15.07;;;;;;;;;;10426537;28;20193;-66
2021/01/02 02:55:36;;;;;;;24.80;15.00;;;;;;;;;;10437629;28;20224;-67
2021/01/02 03:00:39;;;;;;;22.27;13.97;;;;;;;;;;10444319;28;20197;-67
2021/01/02 03:05:40;;;;;;;23.33;14.27;;;;;;;;;;10447170;28;20258;-67
2021/01/02 03:10:42;;;;;;;22.57;13.50;;;;;;;;;;10444378;28;20629;-67
2021/01/02 03:15:45;;;;;;;19.67;12.80;;;;;;;;;;10434512;28;20308;-67
2021/01/02 03:20:46;;;;;;;21.00;12.30;;;;;;;;;;10426230;28;20642;-67
2021/01/02 03:25:48;;;;;;;16.87;10.30;;;;;;;;;;10453737;28;20240;-67
2021/01/02 03:30:50;;;;;;;18.30;11.43;;;;;;;;;;10443116;28;20646;-68
2021/01/02 03:35:52;;;;;;;18.23;11.07;;;;;;;;;;10454478;28;20603;-68
2021/01/02 03:40:53;;;;;;;18.20;10.73;;;;;;;;;;10450784;28;20251;-68
2021/01/02 03:45:56;;;;;;;17.13;10.23;;;;;;;;;;10456904;28;20836;-68
2021/01/02 03:50:57;;;;;;;15.10;9.60;;;;;;;;;;10465412;28;20648;-67
2021/01/02 03:55:59;;;;;;;17.63;10.03;;;;;;;;;;10448351;28;20221;-67
2021/01/02 04:01:02;;;;;;;16.30;9.40;;;;;;;;;;10442352;28;20280;-67
2021/01/02 04:06:07;;;;;;;17.50;9.57;;;;;;;;;;10466529;28;20209;-68
2021/01/02 04:11:09;;;;;;;13.57;8.23;;;;;;;;;;10470731;28;20778;-67
2021/01/02 04:16:11;;;;;;;15.07;8.63;;;;;;;;;;10427069;28;20198;-68
2021/01/02 04:21:13;;;;;;;13.13;7.80;;;;;;;;;;10413118;28;20198;-69
2021/01/02 04:26:17;;;;;;;14.70;8.20;;;;;;;;;;10441934;28;20215;-67
2021/01/02 04:31:20;;;;;;;15.83;9.00;;;;;;;;;;10448093;28;20266;-67
2021/01/02 04:36:22;;;;;;;16.83;8.87;;;;;;;;;;10454791;28;20234;-68
2021/01/02 04:41:24;;;;;;;14.87;9.23;;;;;;;;;;10446695;28;20213;-68
2021/01/02 04:46:26;;;;;;;18.37;9.73;;;;;;;;;;10450049;28;20211;-68
2021/01/02 04:51:28;;;;;;;17.00;9.43;;;;;;;;;;10449786;28;20560;-68
2021/01/02 04:56:31;;;;;;;18.17;9.80;;;;;;;;;;10456243;28;20216;-69
2021/01/02 05:01:36;;;;;;;17.57;9.73;;;;;;;;;;10450877;28;20184;-68
2021/01/02 05:06:38;;;;;;;17.63;9.70;;;;;;;;;;10418273;28;20238;-70
2021/01/02 05:11:40;;;;;;;16.93;9.60;;;;;;;;;;10450332;28;20196;-69
2021/01/02 05:16:43;;;;;;;15.40;9.47;;;;;;;;;;10459894;28;20287;-68
2021/01/02 05:21:45;;;;;;;16.57;9.73;;;;;;;;;;10450852;28;20291;-68
2021/01/02 05:26:55;;;;;;;18.37;9.80;;;;;;;;;;10433314;28;20285;-68
2021/01/02 05:31:58;;;;;;;17.13;9.37;;;;;;;;;;10432600;28;20216;-68
2021/01/02 05:37:01;;;;;;;17.37;9.60;;;;;;;;;;10446387;28;20252;-69
2021/01/02 05:42:04;;;;;;;14.83;8.47;;;;;;;;;;10451691;28;20189;-69
2021/01/02 05:47:06;;;;;;;16.57;8.80;;;;;;;;;;10450915;28;20209;-69
2021/01/02 05:52:09;;;;;;;14.40;7.80;;;;;;;;;;10455068;28;20284;-69
2021/01/02 05:57:11;;;;;;;14.97;8.53;;;;;;;;;;10435935;28;20212;-69
2021/01/02 06:02:25;;;;;;;15.47;8.73;;;;;;;;;;10463848;28;20180;-68
2021/01/02 06:07:28;;;;;;;15.90;8.77;;;;;;;;;;10441768;28;20226;-70
2021/01/02 06:12:30;;;;;;;14.47;7.77;;;;;;;;;;10440909;28;20180;-70
2021/01/02 06:17:33;;;;;;;14.53;8.10;;;;;;;;;;10443389;28;20251;-69
2021/01/02 06:22:36;;;;;;;15.57;9.03;;;;;;;;;;10436620;28;20272;-70
2021/01/02 06:27:38;;;;;;;13.27;7.93;;;;;;;;;;10455540;28;20218;-70
2021/01/02 06:32:43;;;;;;;15.43;9.40;;;;;;;;;;10451339;28;20275;-68
2021/01/02 06:38:03;;;;;;;16.87;9.43;;;;;;;;;;10463227;28;20295;-69
2021/01/02 06:43:06;;;;;;;16.00;8.87;;;;;;;;;;10424291;28;20280;-68
2021/01/02 06:48:24;;;;;;;17.70;9.17;;;;;;;;;;10456954;28;20581;-68
2021/01/02 06:53:27;;;;;;;14.97;9.00;;;;;;;;;;10447591;28;20224;-68
2021/01/02 06:58:35;;;;;;;16.73;8.93;;;;;;;;;;10450894;28;20201;-69
2021/01/02 07:03:44;;;;;;;16.47;9.90;;;;;;;;;;10453662;28;20201;-69
2021/01/02 07:08:47;;;;;;;16.43;9.53;;;;;;;;;;10454176;28;20568;-69
2021/01/02 07:13:49;;;;;;;18.77;10.20;;;;;;;;;;10461783;28;20238;-69
2021/01/02 07:18:51;;;;;;;19.07;10.37;;;;;;;;;;10449014;28;20192;-69
2021/01/02 07:23:53;;;;;;;17.30;9.77;;;;;;;;;;10459645;28;20242;-69
2021/01/02 07:28:55;;;;;;;17.13;10.37;;;;;;;;;;10432011;28;20390;-68
2021/01/02 07:33:56;;;;;;;18.97;10.33;;;;;;;;;;10446061;28;20229;-70
2021/01/02 07:38:59;;;;;;;17.27;9.80;;;;;;;;;;10481013;28;20295;-69
2021/01/02 07:44:01;;;;;;;27.13;15.43;;;;;;;;;;10458435;28;20713;-70
2021/01/02 07:49:03;;;;;;;17.67;9.80;;;;;;;;;;10452151;28;20212;-70
2021/01/02 07:54:05;;;;;;;22.53;11.97;;;;;;;;;;10455645;28;20212;-69
2021/01/02 07:59:26;;;;;;;17.97;9.77;;;;;;;;;;10453047;28;20201;-69
2021/01/02 08:04:28;;;;;;;17.17;9.30;;;;;;;;;;10441435;28;20251;-70
2021/01/02 08:09:34;;;;;;;18.70;9.97;;;;;;;;;;10433499;28;20328;-70
2021/01/02 08:14:37;;;;;;;17.67;10.20;;;;;;;;;;10439302;28;20204;-69
2021/01/02 08:19:40;;;;;;;17.73;10.60;;;;;;;;;;10411432;28;20185;-70
2021/01/02 08:24:43;;;;;;;18.93;10.67;;;;;;;;;;10440511;28;20715;-68
2021/01/02 08:29:45;;;;;;;19.50;10.60;;;;;;;;;;10432565;28;20258;-70
2021/01/02 08:34:46;;;;;;;19.47;10.40;;;;;;;;;;10436669;28;20220;-69
2021/01/02 08:40:01;;;;;;;19.63;11.37;;;;;;;;;;10436950;28;20185;-69
2021/01/02 08:45:05;;;;;;;20.23;11.57;;;;;;;;;;10430937;28;20270;-69
2021/01/02 08:50:09;;;;;;;19.53;10.70;;;;;;;;;;10442882;28;20272;-70
2021/01/02 08:55:13;;;;;;;20.17;11.13;;;;;;;;;;10421218;28;588503;-69
2021/01/02 09:00:16;;;;;;;20.47;11.23;;;;;;;;;;10444430;28;20197;-69
2021/01/02 09:05:25;;;;;;;20.20;11.50;;;;;;;;;;10436209;28;20274;-69
2021/01/02 09:10:28;;;;;;;22.70;11.90;;;;;;;;;;10429707;28;20193;-69
2021/01/02 09:15:43;;;;;;;18.73;10.30;;;;;;;;;;10453375;28;20743;-69
2021/01/02 09:20:45;;;;;;;19.97;11.07;;;;;;;;;;10446807;28;20282;-68
2021/01/02 09:25:47;;;;;;;17.90;10.57;;;;;;;;;;10450530;28;20303;-67
2021/01/02 09:30:50;;;;;;;19.30;11.13;;;;;;;;;;10436156;28;20178;-68
2021/01/02 09:35:51;;;;;;;18.23;10.80;;;;;;;;;;10445791;28;20204;-67
2021/01/02 09:40:54;;;;;;;20.00;10.80;;;;;;;;;;10430238;28;20624;-68
2021/01/02 09:45:56;;;;;;;19.07;10.70;;;;;;;;;;10451491;28;20231;-69
2021/01/02 09:50:58;;;;;;;17.50;10.17;;;;;;;;;;10456609;28;20188;-69
2021/01/02 09:56:01;;;;;;;19.03;10.10;;;;;;;;;;10461939;28;20213;-69
2021/01/02 10:01:04;;;;;;;19.73;10.97;;;;;;;;;;10464891;28;20184;-69
2021/01/02 10:06:06;;;;;;;21.23;11.77;;;;;;;;;;10463331;28;20217;-68
2021/01/02 10:11:08;;;;;;;17.43;10.07;;;;;;;;;;10433359;28;20291;-68
2021/01/02 10:16:10;;;;;;;19.90;10.53;;;;;;;;;;10430817;28;20279;-68
2021/01/02 10:21:12;;;;;;;19.53;11.10;;;;;;;;;;10438648;28;20189;-68
2021/01/02 10:26:20;;;;;;;18.87;10.67;;;;;;;;;;10453574;28;20202;-67
2021/01/02 10:31:22;;;;;;;21.43;11.27;;;;;;;;;;10443913;28;20191;-68
2021/01/02 10:36:24;;;;;;;19.00;11.03;;;;;;;;;;10438682;28;20295;-69
2021/01/02 10:41:26;;;;;;;18.67;10.93;;;;;;;;;;10434396;28;20718;-69
2021/01/02 10:46:28;;;;;;;18.47;11.10;;;;;;;;;;10446259;28;20227;-68
2021/01/02 10:51:29;;;;;;;20.23;11.10;;;;;;;;;;10448959;28;20212;-68
2021/01/02 10:56:32;;;;;;;22.37;11.20;;;;;;;;;;10425610;28;20719;-68
2021/01/02 11:01:39;;;;;;;19.67;11.30;;;;;;;;;;10454710;28;20196;-68
2021/01/02 11:06:41;;;;;;;23.83;12.97;;;;;;;;;;10433966;28;20760;-66
2021/01/02 11:11:43;;;;;;;23.00;12.30;;;;;;;;;;10432938;28;20194;-66
2021/01/02 11:16:47;;;;;;;20.93;11.83;;;;;;;;;;10406689;28;20204;-68
2021/01/02 11:21:49;;;;;;;20.07;11.80;;;;;;;;;;10432319;28;20693;-68
2021/01/02 11:26:52;;;;;;;23.33;12.03;;;;;;;;;;10456246;28;20221;-68
2021/01/02 11:31:54;;;;;;;20.47;11.90;;;;;;;;;;10453470;28;20543;-68
2021/01/02 11:37:14;;;;;;;22.27;12.60;;;;;;;;;;10421607;28;20255;-68
2021/01/02 11:42:37;;;;;;;24.17;14.00;;;;;;;;;;10410828;28;20626;-68
2021/01/02 11:47:38;;;;;;;24.50;14.67;;;;;;;;;;10428015;28;20262;-67
2021/01/02 11:52:40;;;;;;;26.63;15.07;;;;;;;;;;10459556;28;20605;-68
2021/01/02 11:57:42;;;;;;;26.53;15.07;;;;;;;;;;10453524;28;20329;-68
2021/01/02 12:02:44;;;;;;;25.37;15.37;;;;;;;;;;10460236;28;20201;-68
2021/01/02 12:07:45;;;;;;;30.83;17.03;;;;;;;;;;10465636;28;20713;-68
2021/01/02 12:12:48;;;;;;;30.50;17.80;;;;;;;;;;10462823;28;20220;-68
2021/01/02 12:17:50;;;;;;;31.90;16.50;;;;;;;;;;10439000;28;20322;-67
2021/01/02 12:22:51;;;;;;;32.97;17.03;;;;;;;;;;10448337;28;20706;-67
2021/01/02 12:27:58;;;;;;;32.07;16.57;;;;;;;;;;10440590;28;20291;-68
2021/01/02 12:33:00;;;;;;;32.63;17.67;;;;;;;;;;10446319;28;20189;-69
2021/01/02 12:38:03;;;;;;;31.67;16.47;;;;;;;;;;10453200;28;20216;-70
2021/01/02 12:43:06;;;;;;;32.10;17.90;;;;;;;;;;10450521;28;20185;-70
2021/01/02 12:48:07;;;;;;;33.50;17.90;;;;;;;;;;10446348;28;20205;-69
2021/01/02 12:53:09;;;;;;;35.83;18.60;;;;;;;;;;10451323;28;20189;-70
2021/01/02 12:58:11;;;;;;;33.50;17.90;;;;;;;;;;10433183;28;20217;-69
2021/01/02 13:03:13;;;;;;;36.90;19.33;;;;;;;;;;10457733;28;20193;-71
2021/01/02 13:08:18;;;;;;;35.93;19.67;;;;;;;;;;10458384;28;20420;-68
2021/01/02 13:13:20;;;;;;;38.77;19.70;;;;;;;;;;10455327;28;20188;-69
2021/01/02 13:18:21;;;;;;;37.20;19.50;;;;;;;;;;10449242;28;20206;-69
2021/01/02 13:23:23;;;;;;;36.00;19.33;;;;;;;;;;10455712;28;20724;-69
2021/01/02 13:28:30;;;;;;;38.60;20.17;;;;;;;;;;10456086;28;20256;-70
2021/01/02 13:33:32;;;;;;;39.23;19.00;;;;;;;;;;10448335;28;20643;-70
2021/01/02 13:38:34;;;;;;;40.03;20.90;;;;;;;;;;10458216;28;20180;-69
2021/01/02 13:43:36;;;;;;;43.67;20.50;;;;;;;;;;10459555;28;20641;-70
2021/01/02 13:48:38;;;;;;;40.23;20.57;;;;;;;;;;10459005;28;20217;-69
2021/01/02 13:53:44;;;;;;;40.27;19.83;;;;;;;;;;10448450;28;20213;-71
2021/01/02 13:58:48;;;;;;;39.00;18.53;;;;;;;;;;10454693;28;20204;-71
2021/01/02 14:03:50;;;;;;;38.57;20.17;;;;;;;;;;10443295;28;20243;-69
2021/01/02 14:08:55;;;;;;;37.50;19.43;;;;;;;;;;10458718;28;20303;-68
2021/01/02 14:13:58;;;;;;;39.37;18.40;;;;;;;;;;10461608;28;20223;-69
2021/01/02 14:19:16;;;;;;;37.17;19.00;;;;;;;;;;10443542;28;20199;-68
2021/01/02 14:24:18;;;;;;;36.30;18.23;;;;;;;;;;10449699;28;20245;-68
2021/01/02 14:29:38;;;;;;;35.93;17.93;;;;;;;;;;10442799;28;20627;-70
2021/01/02 14:34:47;;;;;;;37.63;18.73;;;;;;;;;;10407175;28;20213;-69
2021/01/02 14:39:49;;;;;;;37.23;18.70;;;;;;;;;;10456384;28;20267;-68
2021/01/02 14:44:51;;;;;;;35.97;18.77;;;;;;;;;;10450592;28;20209;-68
2021/01/02 14:49:54;;;;;;;36.50;17.77;;;;;;;;;;10422070;28;20213;-68
2021/01/02 14:54:56;;;;;;;37.63;18.93;;;;;;;;;;10428679;28;20208;-67
2021/01/02 14:59:59;;;;;;;39.10;18.80;;;;;;;;;;10471743;28;20188;-68
2021/01/02 15:05:03;;;;;;;37.90;18.23;;;;;;;;;;10431157;28;20207;-68
2021/01/02 15:10:05;;;;;;;37.47;17.90;;;;;;;;;;10475172;28;20323;-67
2021/01/02 15:15:07;;;;;;;40.07;19.70;;;;;;;;;;10454057;28;20587;-70
2021/01/02 15:20:13;;;;;;;38.57;18.13;;;;;;;;;;10456288;28;20213;-69
2021/01/02 15:25:15;;;;;;;35.43;16.80;;;;;;;;;;10459822;28;20216;-69
2021/01/02 15:30:17;;;;;;;33.13;15.90;;;;;;;;;;10457774;28;20289;-68
2021/01/02 15:35:20;;;;;;;34.00;16.77;;;;;;;;;;10461232;28;20545;-67
2021/01/02 15:40:23;;;;;;;32.40;16.43;;;;;;;;;;10461649;28;20178;-68
2021/01/02 15:45:25;;;;;;;32.67;16.93;;;;;;;;;;10456912;28;20555;-68
2021/01/02 15:50:27;;;;;;;30.93;15.43;;;;;;;;;;10467949;28;20760;-69
2021/01/02 15:55:31;;;;;;;29.90;14.87;;;;;;;;;;10436755;28;20252;-73
2021/01/02 16:00:34;;;;;;;36.07;16.93;;;;;;;;;;10448281;28;20185;-71
2021/01/02 16:06:05;;;;;;;31.03;14.90;;;;;;;;;;10464149;28;20216;-73
2021/01/02 16:11:12;;;;;;;29.80;14.30;;;;;;;;;;10447856;28;20737;-72
2021/01/02 16:16:27;;;;;;;26.70;14.73;;;;;;;;;;10454351;28;20269;-71
2021/01/02 16:21:45;;;;;;;27.40;14.23;;;;;;;;;;10473830;28;20197;-69
2021/01/02 16:26:49;;;;;;;29.70;14.33;;;;;;;;;;10451387;28;20205;-68
2021/01/02 16:31:52;;;;;;;31.37;15.23;;;;;;;;;;10411935;28;20649;-68
2021/01/02 16:37:00;;;;;;;35.13;17.00;;;;;;;;;;10432716;28;20219;-68
2021/01/02 16:42:03;;;;;;;35.30;17.17;;;;;;;;;;10440583;28;20219;-69
2021/01/02 16:47:06;;;;;;;35.73;17.43;;;;;;;;;;10456204;28;20565;-67
2021/01/02 16:52:08;;;;;;;35.37;17.63;;;;;;;;;;10451752;28;20594;-67
2021/01/02 16:57:12;;;;;;;33.80;16.77;;;;;;;;;;10457626;28;20726;-68
2021/01/02 17:02:14;;;;;;;37.67;18.10;;;;;;;;;;10463911;28;20181;-69
2021/01/02 17:07:16;;;;;;;42.00;18.67;;;;;;;;;;10450910;28;20303;-69
2021/01/02 17:12:19;;;;;;;36.57;17.13;;;;;;;;;;10450708;28;20202;-70
2021/01/02 17:17:20;;;;;;;41.33;19.23;;;;;;;;;;10443006;28;20575;-69
2021/01/02 17:22:22;;;;;;;39.53;18.83;;;;;;;;;;10448857;28;20188;-71
2021/01/02 17:27:25;;;;;;;36.93;17.07;;;;;;;;;;10452702;28;20247;-69
2021/01/02 17:32:26;;;;;;;41.87;18.63;;;;;;;;;;10444318;28;20193;-70
2021/01/02 17:37:28;;;;;;;39.67;18.10;;;;;;;;;;10424262;28;20584;-70
2021/01/02 17:42:30;;;;;;;36.80;17.30;;;;;;;;;;10440468;28;20193;-70
2021/01/02 17:47:32;;;;;;;38.73;18.23;;;;;;;;;;10448365;28;20943;-70
2021/01/02 17:52:35;;;;;;;38.90;17.37;;;;;;;;;;10443652;28;20535;-69
2021/01/02 17:57:38;;;;;;;39.17;18.47;;;;;;;;;;10450677;28;20236;-69
2021/01/02 18:02:46;;;;;;;39.07;18.70;;;;;;;;;;10459073;28;20186;-69
2021/01/02 18:07:48;;;;;;;39.40;18.07;;;;;;;;;;10457102;28;20274;-68
2021/01/02 18:12:51;;;;;;;35.73;17.67;;;;;;;;;;10457371;28;20189;-68
2021/01/02 18:17:53;;;;;;;37.80;17.73;;;;;;;;;;10445729;28;20208;-70
2021/01/02 18:22:54;;;;;;;37.93;17.50;;;;;;;;;;10431015;28;20192;-68
2021/01/02 18:27:57;;;;;;;39.70;17.13;;;;;;;;;;10458947;28;20323;-69
2021/01/02 18:33:06;;;;;;;30.47;15.00;;;;;;;;;;10436818;28;20263;-70
2021/01/02 18:38:16;;;;;;;34.67;16.07;;;;;;;;;;10458789;28;20259;-67
2021/01/02 18:43:18;;;;;;;38.23;16.33;;;;;;;;;;10467044;28;20213;-72
2021/01/02 18:48:20;;;;;;;32.17;15.57;;;;;;;;;;10456574;28;20263;-69
2021/01/02 18:53:22;;;;;;;34.10;15.07;;;;;;;;;;10449372;28;20202;-70
2021/01/02 18:58:25;;;;;;;34.10;15.37;;;;;;;;;;10458441;28;20208;-69
2021/01/02 19:03:26;;;;;;;35.00;15.70;;;;;;;;;;10459882;28;20188;-68
2021/01/02 19:08:28;;;;;;;34.20;15.23;;;;;;;;;;10467458;28;20213;-68
2021/01/02 19:13:30;;;;;;;33.83;15.70;;;;;;;;;;10456885;28;20195;-67
2021/01/02 19:18:32;;;;;;;32.17;15.47;;;;;;;;;;10463991;28;20603;-68
2021/01/02 19:23:33;;;;;;;32.37;16.10;;;;;;;;;;10436453;28;20196;-68
2021/01/02 19:28:36;;;;;;;33.97;15.67;;;;;;;;;;10457069;28;20355;-68
2021/01/02 19:33:38;;;;;;;29.57;14.50;;;;;;;;;;10460968;28;20241;-69
2021/01/02 19:38:40;;;;;;;36.23;15.60;;;;;;;;;;10455809;28;20193;-68
2021/01/02 19:43:43;;;;;;;35.37;16.23;;;;;;;;;;10447377;28;20193;-67
2021/01/02 19:48:45;;;;;;;34.17;15.57;;;;;;;;;;10437349;28;20304;-70
2021/01/02 19:53:46;;;;;;;35.43;15.77;;;;;;;;;;10458213;28;20677;-67
2021/01/02 19:58:49;;;;;;;33.27;15.80;;;;;;;;;;10458297;28;20263;-69
2021/01/02 20:03:53;;;;;;;41.40;16.73;;;;;;;;;;10441156;28;20611;-69
2021/01/02 20:08:55;;;;;;;32.77;15.97;;;;;;;;;;10468092;28;20692;-70
2021/01/02 20:13:57;;;;;;;39.07;17.00;;;;;;;;;;10457201;28;20213;-70
2021/01/02 20:18:59;;;;;;;42.07;18.30;;;;;;;;;;10454934;28;20280;-69
2021/01/02 20:24:02;;;;;;;37.63;16.90;;;;;;;;;;10453432;28;20312;-69
2021/01/02 20:29:07;;;;;;;40.67;16.93;;;;;;;;;;10457288;28;20258;-71
2021/01/02 20:34:11;;;;;;;37.87;16.90;;;;;;;;;;10432615;28;20213;-70
2021/01/02 20:39:15;;;;;;;36.77;16.40;;;;;;;;;;10463141;28;20185;-69
2021/01/02 20:44:18;;;;;;;36.37;16.77;;;;;;;;;;10451743;28;20204;-70
2021/01/02 20:49:21;;;;;;;39.37;16.93;;;;;;;;;;10458054;28;20212;-69
2021/01/02 20:54:23;;;;;;;39.57;17.40;;;;;;;;;;10463802;28;20211;-69
2021/01/02 20:59:26;;;;;;;37.20;16.87;;;;;;;;;;10447863;28;20192;-69
2021/01/02 21:04:29;;;;;;;36.40;16.33;;;;;;;;;;10458111;28;20208;-70
2021/01/02 21:09:34;;;;;;;34.87;16.47;;;;;;;;;;10431417;28;20230;-67
2021/01/02 21:14:39;;;;;;;38.13;17.27;;;;;;;;;;10443495;28;20727;-70
2021/01/02 21:19:40;;;;;;;40.33;18.10;;;;;;;;;;10433930;28;20236;-70
2021/01/02 21:24:58;;;;;;;43.50;17.23;;;;;;;;;;10425568;28;20243;-69
2021/01/02 21:30:01;;;;;;;41.03;18.07;;;;;;;;;;10430317;28;20229;-69
2021/01/02 21:35:05;;;;;;;39.33;17.40;;;;;;;;;;10440716;28;20254;-70
2021/01/02 21:40:07;;;;;;;37.97;16.97;;;;;;;;;;10432833;28;20654;-68
2021/01/02 21:45:20;;;;;;;42.80;18.33;;;;;;;;;;10458460;28;20216;-72
2021/01/02 21:50:29;;;;;;;40.37;17.50;;;;;;;;;;10453766;28;20656;-70
2021/01/02 21:55:30;;;;;;;40.27;17.77;;;;;;;;;;10440581;28;20592;-72
2021/01/02 22:00:33;;;;;;;41.30;17.57;;;;;;;;;;10425232;28;20276;-70
2021/01/02 22:05:38;;;;;;;37.83;17.37;;;;;;;;;;10431490;28;20680;-69
2021/01/02 22:10:40;;;;;;;37.37;16.93;;;;;;;;;;10428295;28;20637;-70
2021/01/02 22:15:42;;;;;;;40.33;17.63;;;;;;;;;;10424882;28;20204;-71
2021/01/02 22:20:45;;;;;;;43.90;17.03;;;;;;;;;;10407763;28;20715;-69
2021/01/02 22:25:49;;;;;;;41.60;16.80;;;;;;;;;;10417360;28;20224;-70
2021/01/02 22:30:52;;;;;;;42.00;16.93;;;;;;;;;;10435606;28;20207;-68
2021/01/02 22:35:54;;;;;;;40.20;17.10;;;;;;;;;;10425468;28;20216;-70
2021/01/02 22:40:55;;;;;;;40.00;17.87;;;;;;;;;;10423469;28;20198;-70
2021/01/02 22:45:58;;;;;;;40.63;17.03;;;;;;;;;;10431128;28;20209;-69
2021/01/02 22:50:59;;;;;;;36.63;15.40;;;;;;;;;;10424746;28;20204;-71
2021/01/02 22:56:01;;;;;;;36.97;15.10;;;;;;;;;;10445340;28;20220;-71
2021/01/02 23:01:06;;;;;;;36.73;16.47;;;;;;;;;;10444770;28;20195;-69
2021/01/02 23:06:08;;;;;;;40.13;16.07;;;;;;;;;;10435620;28;20302;-67
2021/01/02 23:11:10;;;;;;;32.57;13.73;;;;;;;;;;10443624;28;20704;-69
2021/01/02 23:16:13;;;;;;;33.87;15.60;;;;;;;;;;10447794;28;20606;-68
2021/01/02 23:21:17;;;;;;;37.20;15.97;;;;;;;;;;10444006;28;20246;-68
2021/01/02 23:26:27;;;;;;;38.00;15.50;;;;;;;;;;10448209;28;20212;-67
2021/01/02 23:31:34;;;;;;;34.50;15.67;;;;;;;;;;10412471;28;20569;-70
2021/01/02 23:36:43;;;;;;;40.07;15.83;;;;;;;;;;10442108;28;20216;-72
2021/01/02 23:41:44;;;;;;;35.90;16.10;;;;;;;;;;10455397;28;20197;-73
2021/01/02 23:46:52;;;;;;;36.17;16.20;;;;;;;;;;10434343;28;20216;-73
2021/01/02 23:51:54;;;;;;;36.87;16.13;;;;;;;;;;10447731;28;20221;-71
2021/01/02 23:56:56;;;;;;;35.10;15.00;;;;;;;;;;10469034;28;20217;-71
